Time;durP1;ratioP1;P1;durP2;ratioP2;P2;SDS_P1;SDS_P2;PMS_P1;PMS_P2;Temp;Humidity;BMP_temperature;BMP_pressure;BME280_temperature;BME280_humidity;BME280_pressure;Samples;Min_cycle;Max_cycle;Signal;HPM_P1;HPM_P2
2023/08/17 00:01:45;;;;;;;3.13;2.90;;;;;;;;;;5045150;28;20430;-67
2023/08/17 00:04:11;;;;;;;4.20;3.00;;;;;;;;;;5047544;28;20063;-68
2023/08/17 00:06:37;;;;;;;3.55;3.15;;;;;;;;;;5049050;28;20414;-67
2023/08/17 00:09:03;;;;;;;3.63;3.33;;;;;;;;;;5045770;28;20450;-67
2023/08/17 00:11:29;;;;;;;4.07;3.67;;;;;;;;;;5054977;28;20029;-67
2023/08/17 00:13:57;;;;;;;4.85;3.75;;;;;;;;;;5054493;28;20044;-67
2023/08/17 00:16:23;;;;;;;7.97;4.50;;;;;;;;;;5040824;28;20052;-67
2023/08/17 00:18:49;;;;;;;4.80;4.50;;;;;;;;;;5054847;28;20099;-67
2023/08/17 00:21:15;;;;;;;5.95;5.40;;;;;;;;;;5054715;28;20024;-67
2023/08/17 00:23:41;;;;;;;7.80;5.38;;;;;;;;;;5054577;28;20042;-67
2023/08/17 00:26:07;;;;;;;5.43;5.03;;;;;;;;;;5054372;28;20052;-67
2023/08/17 00:28:33;;;;;;;6.07;5.43;;;;;;;;;;5053835;28;20082;-67
2023/08/17 00:31:00;;;;;;;7.03;5.80;;;;;;;;;;5053711;28;20103;-66
2023/08/17 00:33:26;;;;;;;6.78;5.50;;;;;;;;;;5054489;28;20037;-67
2023/08/17 00:35:52;;;;;;;6.68;5.68;;;;;;;;;;5047054;28;20029;-67
2023/08/17 00:38:18;;;;;;;6.05;5.65;;;;;;;;;;5039645;28;20088;-67
2023/08/17 00:40:44;;;;;;;7.35;6.65;;;;;;;;;;5054424;28;20099;-67
2023/08/17 00:43:10;;;;;;;8.00;7.28;;;;;;;;;;5054279;28;20025;-67
2023/08/17 00:45:37;;;;;;;6.35;5.75;;;;;;;;;;5054334;28;20139;-67
2023/08/17 00:48:05;;;;;;;7.97;6.80;;;;;;;;;;5054403;28;20028;-67
2023/08/17 00:50:31;;;;;;;8.27;6.97;;;;;;;;;;5054417;28;20502;-67
2023/08/17 00:52:57;;;;;;;9.02;6.72;;;;;;;;;;5053980;28;20479;-68
2023/08/17 00:55:23;;;;;;;8.27;7.45;;;;;;;;;;5053997;28;20091;-67
2023/08/17 00:57:49;;;;;;;8.20;7.50;;;;;;;;;;5054160;28;20021;-66
2023/08/17 01:00:21;;;;;;;7.72;7.13;;;;;;;;;;5053929;28;20033;-67
2023/08/17 01:02:48;;;;;;;9.95;8.10;;;;;;;;;;5053910;28;20025;-67
2023/08/17 01:05:15;;;;;;;12.27;8.32;;;;;;;;;;5052903;28;20060;-67
2023/08/17 01:07:41;;;;;;;8.18;7.35;;;;;;;;;;5053212;28;20017;-67
2023/08/17 01:10:07;;;;;;;12.00;8.77;;;;;;;;;;5053265;28;20146;-67
2023/08/17 01:12:38;;;;;;;14.15;9.57;;;;;;;;;;5049840;28;20490;-67
2023/08/17 01:15:12;;;;;;;10.23;9.10;;;;;;;;;;5053771;28;20032;-67
2023/08/17 01:17:48;;;;;;;8.23;7.50;;;;;;;;;;5053780;28;20029;-68
2023/08/17 01:20:16;;;;;;;9.82;8.35;;;;;;;;;;5040918;28;20040;-68
2023/08/17 01:22:42;;;;;;;12.00;9.38;;;;;;;;;;5053413;28;20036;-67
2023/08/17 01:25:09;;;;;;;11.77;9.85;;;;;;;;;;5052926;28;20035;-67
2023/08/17 01:27:39;;;;;;;9.23;8.30;;;;;;;;;;5052839;28;20021;-67
2023/08/17 01:30:06;;;;;;;12.57;10.20;;;;;;;;;;5049807;28;20059;-67
2023/08/17 01:32:59;;;;;;;12.70;9.40;;;;;;;;;;5032780;28;20091;-67
2023/08/17 01:35:36;;;;;;;11.50;9.20;;;;;;;;;;5049703;28;20053;-68
2023/08/17 01:38:07;;;;;;;12.00;9.60;;;29.20;99.90;;;;;;5046298;28;20025;-69
2023/08/17 01:40:34;;;;;;;11.32;9.75;;;26.80;99.90;;;;;;5052661;28;20128;-70
2023/08/17 01:43:02;;;;;;;10.65;9.75;;;26.90;99.90;;;;;;5052435;28;20029;-69
2023/08/17 01:45:28;;;;;;;10.95;9.95;;;;;;;;;;5038621;28;20033;-69
2023/08/17 01:47:55;;;;;;;9.77;8.82;;;;;;;;;;5052398;28;20063;-68
2023/08/17 01:50:21;;;;;;;11.43;9.38;;;;;;;;;;5052350;28;20025;-68
2023/08/17 01:52:47;;;;;;;11.50;10.30;;;;;;;;;;5052408;28;20091;-68
2023/08/17 01:55:13;;;;;;;10.63;9.65;;;;;;;;;;5052308;28;20100;-67
2023/08/17 01:57:42;;;;;;;10.70;9.60;;;;;;;;;;5052351;28;20466;-68
2023/08/17 02:00:10;;;;;;;10.90;9.93;;;;;;;;;;5052192;28;20045;-68
2023/08/17 02:02:36;;;;;;;9.23;8.10;;;;;;;;;;5036926;28;20490;-67
2023/08/17 02:05:02;;;;;;;9.27;8.38;;;;;;;;;;5050793;28;20478;-68
2023/08/17 02:07:30;;;;;;;9.52;8.73;;;;;;;;;;5047912;28;20029;-68
2023/08/17 02:09:56;;;;;;;9.50;8.55;;;;;;;;;;5045222;28;20029;-68
2023/08/17 02:12:22;;;;;;;10.73;8.85;;;;;;;;;;5052800;28;20020;-68
2023/08/17 02:14:48;;;;;;;8.45;7.72;;;;;;;;;;5051474;28;20155;-68
2023/08/17 02:17:16;;;;;;;7.43;6.82;;;;;;;;;;5052127;28;20056;-68
2023/08/17 02:19:43;;;;;;;6.88;6.22;;;;;;;;;;5052337;28;20151;-68
2023/08/17 02:22:09;;;;;;;6.40;5.80;;;;;;;;;;5053051;28;20471;-68
2023/08/17 02:24:35;;;;;;;6.78;6.28;;;;;;;;;;5052821;28;20032;-68
2023/08/17 02:27:01;;;;;;;8.02;5.60;;;;;;;;;;5039627;28;20049;-68
2023/08/17 02:29:27;;;;;;;4.93;4.57;;;;;;;;;;5052750;28;20479;-67
2023/08/17 02:31:53;;;;;;;5.00;4.60;;;;;;;;;;5052920;28;20033;-68
2023/08/17 02:34:19;;;;;;;5.40;4.93;;;;;;;;;;5051344;28;20017;-68
2023/08/17 02:36:45;;;;;;;6.13;5.40;;;;;;;;;;5052809;28;20390;-68
2023/08/17 02:39:11;;;;;;;6.25;5.35;;;;;;;;;;5052554;28;20029;-68
2023/08/17 02:41:37;;;;;;;6.88;5.28;;;;;;;;;;5052993;28;20035;-68
2023/08/17 02:44:03;;;;;;;4.95;4.50;;;;;;;;;;5052731;28;20112;-69
2023/08/17 02:46:29;;;;;;;5.07;4.65;;;;;;;;;;5051043;28;20066;-70
2023/08/17 02:48:55;;;;;;;6.10;5.50;;;;;;;;;;5052627;28;20562;-69
2023/08/17 02:51:21;;;;;;;4.88;4.47;;;;;;;;;;5052231;28;20056;-70
2023/08/17 02:53:47;;;;;;;4.88;4.43;;;;;;;;;;5052569;28;20029;-70
2023/08/17 02:56:13;;;;;;;4.82;4.32;;;;;;;;;;5052387;28;20499;-70
2023/08/17 02:58:42;;;;;;;4.55;4.15;;;;;;;;;;5044322;28;20112;-70
2023/08/17 03:01:09;;;;;;;4.28;3.88;;;;;;;;;;5047259;28;20466;-70
2023/08/17 03:03:35;;;;;;;4.70;4.30;;;;;;;;;;5052416;28;20028;-70
2023/08/17 03:06:02;;;;;;;5.43;4.93;;;;;;;;;;5052156;28;20495;-70
2023/08/17 03:08:28;;;;;;;4.40;4.05;;;;;;;;;;5052283;28;20475;-70
2023/08/17 03:10:54;;;;;;;5.45;4.40;;;;;;;;;;5052341;28;20415;-70
2023/08/17 03:13:20;;;;;;;5.07;4.13;;;;;;;;;;5049108;28;20446;-70
2023/08/17 03:15:46;;;;;;;5.57;4.43;;;;;;;;;;5041435;28;20104;-70
2023/08/17 03:18:12;;;;;;;4.57;4.18;;;;;;;;;;5052529;28;20061;-70
2023/08/17 03:20:38;;;;;;;4.70;4.30;;;;;;;;;;5051533;28;20064;-70
2023/08/17 03:23:07;;;;;;;5.93;4.53;;;;;;;;;;5052419;28;20474;-70
2023/08/17 03:25:33;;;;;;;4.72;4.32;;;;;;;;;;5052332;28;20435;-70
2023/08/17 03:27:59;;;;;;;5.35;4.78;;;;;;;;;;5052474;28;20091;-69
2023/08/17 03:30:25;;;;;;;4.32;3.92;;;;;;;;;;5038569;28;20475;-70
2023/08/17 03:32:51;;;;;;;4.03;3.83;;;;;;;;;;5047241;28;20049;-69
2023/08/17 03:35:17;;;;;;;5.05;4.60;;;;;;;;;;5050534;28;20029;-70
2023/08/17 03:37:45;;;;;;;6.90;4.43;;;;;;;;;;5055290;28;20051;-69
2023/08/17 03:40:11;;;;;;;4.28;3.97;;;;;;;;;;5054621;28;20029;-70
2023/08/17 03:42:37;;;;;;;4.63;4.25;;;;;;;;;;5053378;28;20032;-69
2023/08/17 03:45:03;;;;;;;4.28;3.97;;;;;;;;;;5053884;28;20040;-70
2023/08/17 03:47:29;;;;;;;5.40;4.22;;;;;;;;;;5043287;28;20574;-70
2023/08/17 03:49:55;;;;;;;4.68;4.28;;;;;;;;;;5045527;28;20017;-69
2023/08/17 03:52:21;;;;;;;5.70;4.65;;;;;;;;;;5055288;28;20029;-70
2023/08/17 03:54:47;;;;;;;4.65;4.28;;;;;;;;;;5055373;28;20029;-69
2023/08/17 03:57:13;;;;;;;4.80;4.40;;;;;;;;;;5055386;28;20063;-70
2023/08/17 03:59:39;;;;;;;4.60;4.20;;;;;;;;;;5055186;28;20466;-70
2023/08/17 04:02:05;;;;;;;4.63;4.22;;;;;;;;;;5043391;28;20136;-69
2023/08/17 04:04:32;;;;;;;4.50;4.10;;;;;;;;;;5053177;28;20031;-70
2023/08/17 04:06:58;;;;;;;3.97;3.67;;;;;;;;;;5055306;28;20052;-69
2023/08/17 04:09:24;;;;;;;4.63;4.18;;;;;;;;;;5055011;28;20086;-70
2023/08/17 04:11:50;;;;;;;4.18;3.58;;;;;;;;;;5050792;28;20029;-71
2023/08/17 04:14:16;;;;;;;5.47;4.00;;;;;;;;;;5049345;28;20032;-70
2023/08/17 04:16:42;;;;;;;5.00;4.45;;;;;;;;;;5044782;28;20112;-70
2023/08/17 04:19:08;;;;;;;4.50;4.03;;;;;;;;;;5053266;28;20558;-70
2023/08/17 04:21:34;;;;;;;4.28;3.97;;;;;;;;;;5049124;28;20052;-70
2023/08/17 04:24:00;;;;;;;4.10;3.80;;;;;;;;;;5046526;28;20476;-70
2023/08/17 04:26:26;;;;;;;6.53;4.47;;;;;;;;;;5048795;28;20548;-69
2023/08/17 04:28:53;;;;;;;4.63;4.25;;;;;;;;;;5054660;28;20017;-69
2023/08/17 04:31:19;;;;;;;5.18;4.78;;;;;;;;;;5053259;28;20383;-69
2023/08/17 04:33:45;;;;;;;6.70;4.50;;;;;;;;;;5040491;28;20021;-69
2023/08/17 04:36:11;;;;;;;5.45;5.00;;;;;;;;;;5054859;28;20024;-70
2023/08/17 04:38:37;;;;;;;6.05;5.05;;;;;;;;;;5054254;28;20382;-70
2023/08/17 04:41:03;;;;;;;5.97;5.47;;;;;;;;;;5041039;28;20021;-70
2023/08/17 04:43:29;;;;;;;6.20;5.70;;;;;;;;;;5054319;28;20075;-70
2023/08/17 04:45:55;;;;;;;6.75;6.03;;;;;;;;;;5054455;28;20029;-70
2023/08/17 04:48:21;;;;;;;7.60;5.40;;;;;;;;;;5054333;28;20100;-70
2023/08/17 04:50:47;;;;;;;5.55;5.13;;;;;;;;;;5052264;28;20086;-69
2023/08/17 04:53:13;;;;;;;5.65;5.25;;;;;;;;;;5042325;28;20029;-69
2023/08/17 04:55:39;;;;;;;6.82;6.20;;;;;;;;;;5054410;28;20028;-69
2023/08/17 04:58:05;;;;;;;6.95;6.15;;;;;;;;;;5054405;28;20040;-69
2023/08/17 05:00:31;;;;;;;6.90;6.30;;;;;;;;;;5054114;28;20483;-70
2023/08/17 05:02:57;;;;;;;7.20;6.53;;;;;;;;;;5053883;28;20025;-70
2023/08/17 05:05:24;;;;;;;7.60;6.97;;;;;;;;;;5054167;28;20063;-71
2023/08/17 05:07:50;;;;;;;8.68;7.68;;;;;;;;;;5053888;28;20499;-69
2023/08/17 05:10:16;;;;;;;8.38;7.60;;;;;;;;;;5053966;28;20021;-70
2023/08/17 05:12:42;;;;;;;8.35;7.15;;;;;;;;;;5052834;28;20036;-69
2023/08/17 05:15:09;;;;;;;8.63;7.75;;;;;;;;;;5052636;28;20029;-69
2023/08/17 05:17:35;;;;;;;9.20;8.30;;;;;;;;;;5053850;28;20075;-69
2023/08/17 05:20:01;;;;;;;8.50;7.70;;;;;;;;;;5048663;28;20112;-70
2023/08/17 05:22:27;;;;;;;9.43;8.38;;;;;;;;;;5043588;28;20115;-70
2023/08/17 05:24:54;;;;;;;9.15;8.35;;;;;;;;;;5037550;28;20064;-70
2023/08/17 05:27:20;;;;;;;9.20;8.30;;;;;;;;;;5041620;28;20406;-70
2023/08/17 05:29:46;;;;;;;9.25;8.40;;;;;;;;;;5053609;28;20549;-70
2023/08/17 05:32:12;;;;;;;8.50;7.90;;;;;;;;;;5053470;28;20083;-70
2023/08/17 05:34:38;;;;;;;8.10;7.32;;;;;;;;;;5052161;28;20024;-70
2023/08/17 05:37:04;;;;;;;9.10;8.10;;;;;;;;;;5053445;28;20047;-70
2023/08/17 05:39:30;;;;;;;9.73;8.73;;;;;;;;;;5052238;28;20485;-70
2023/08/17 05:41:56;;;;;;;9.30;8.07;;;;;;;;;;5053540;28;20033;-70
2023/08/17 05:44:22;;;;;;;9.57;8.45;;;;;;;;;;5053390;28;20017;-70
2023/08/17 05:46:48;;;;;;;9.00;8.18;;;;;;;;;;5053134;28;20037;-70
2023/08/17 05:49:14;;;;;;;8.90;8.05;;;;;;;;;;5046887;28;20052;-70
2023/08/17 05:51:40;;;;;;;9.52;8.18;;;;;;;;;;5044503;28;20033;-70
2023/08/17 05:54:07;;;;;;;9.23;8.32;;;;;;;;;;5050942;28;20048;-70
2023/08/17 05:56:33;;;;;;;9.15;8.32;;;;;;;;;;5053230;28;20184;-70
2023/08/17 05:58:59;;;;;;;9.15;8.25;;;;;;;;;;5050477;28;20084;-70
2023/08/17 06:01:25;;;;;;;8.68;7.97;;;;;;;;;;5041720;28;20021;-70
2023/08/17 06:03:51;;;;;;;8.15;7.35;;;;;;;;;;5053130;28;20043;-70
2023/08/17 06:06:17;;;;;;;8.07;7.38;;;;;;;;;;5052810;28;20063;-70
2023/08/17 06:08:44;;;;;;;8.35;7.72;;;;;;;;;;5051836;28;20478;-70
2023/08/17 06:11:11;;;;;;;8.48;7.68;;;;;;;;;;5052883;28;20037;-70
2023/08/17 06:13:37;;;;;;;7.85;7.15;;;;;;;;;;5041898;28;20033;-70
2023/08/17 06:16:03;;;;;;;7.57;6.82;;;;;;;;;;5049989;28;20470;-70
2023/08/17 06:18:30;;;;;;;7.20;6.50;;;;;;;;;;5052853;28;20533;-70
2023/08/17 06:20:56;;;;;;;7.00;6.40;;;;;;;;;;5050079;28;20112;-70
2023/08/17 06:23:22;;;;;;;7.00;6.30;;;;;;;;;;5046126;28;20033;-70
2023/08/17 06:25:48;;;;;;;9.25;6.50;;;;;;;;;;5042675;28;20044;-70
2023/08/17 06:28:14;;;;;;;7.47;6.78;;;;;;;;;;5052670;28;20033;-70
2023/08/17 06:30:40;;;;;;;6.00;5.47;;;;;;;;;;5052921;28;20041;-70
2023/08/17 06:33:08;;;;;;;6.65;6.03;;;;;;;;;;5051890;28;20467;-70
2023/08/17 06:35:34;;;;;;;7.40;6.63;;;;;;;;;;5039899;28;20040;-70
2023/08/17 06:38:01;;;;;;;6.82;6.20;;;;;;;;;;5052474;28;20029;-69
2023/08/17 06:40:27;;;;;;;6.85;6.28;;;;;;;;;;5052615;28;20036;-70
2023/08/17 06:42:54;;;;;;;6.13;5.63;;;;;;;;;;5052495;28;20033;-70
2023/08/17 06:45:20;;;;;;;6.28;5.72;;;;;;;;;;5052560;28;20033;-70
2023/08/17 06:47:48;;;;;;;8.48;6.53;;;;;;;;;;5052850;28;20024;-70
2023/08/17 06:50:14;;;;;;;6.93;6.43;;;;;;;;;;5050848;28;20124;-70
2023/08/17 06:52:41;;;;;;;6.78;6.28;;;;;;;;;;5051782;28;20060;-70
2023/08/17 06:55:07;;;;;;;7.65;6.95;;;;;;;;;;5052032;28;20032;-69
2023/08/17 06:57:33;;;;;;;7.70;6.90;;;;;;;;;;5052808;28;20025;-70
2023/08/17 06:59:59;;;;;;;7.60;7.00;;;;;;;;;;5038856;28;20021;-69
2023/08/17 07:02:25;;;;;;;7.60;6.97;;;;;;;;;;5052312;28;20497;-70
2023/08/17 07:04:51;;;;;;;8.20;6.97;;;;;;;;;;5053130;28;20043;-69
2023/08/17 07:07:17;;;;;;;8.00;7.03;;;;;;;;;;5049383;28;20026;-70
2023/08/17 07:09:43;;;;;;;7.50;6.80;;;;;;;;;;5048167;28;20065;-70
2023/08/17 07:12:09;;;;;;;7.18;6.47;;;;;;;;;;5056006;28;20029;-70
2023/08/17 07:14:35;;;;;;;6.72;6.13;;;;;;;;;;5056024;28;20017;-69
2023/08/17 07:17:01;;;;;;;7.18;6.47;;;;;;;;;;5042026;28;20048;-69
2023/08/17 07:19:27;;;;;;;7.45;6.75;;;;;;;;;;5056285;28;20056;-69
2023/08/17 07:21:53;;;;;;;8.50;6.95;;;;;;;;;;5056120;28;20036;-69
2023/08/17 07:24:20;;;;;;;6.75;5.57;;;;;;;;;;5055778;28;20025;-69
2023/08/17 07:26:46;;;;;;;6.43;5.85;;;;;;;;;;5055849;28;20513;-69
2023/08/17 07:29:12;;;;;;;6.45;5.80;;;;;;;;;;5055891;28;20486;-69
2023/08/17 07:31:38;;;;;;;6.35;5.85;;;;;;;;;;5055914;28;20087;-69
2023/08/17 07:34:05;;;;;;;6.35;5.75;;;27.00;99.90;;;;;;5055889;28;20021;-69
2023/08/17 07:36:32;;;;;;;6.38;5.72;;;27.30;99.90;;;;;;5052153;28;20082;-69
2023/08/17 07:38:58;;;;;;;6.53;5.93;;;27.30;99.90;;;;;;5055819;28;20033;-69
2023/08/17 07:41:24;;;;;;;7.45;5.53;;;27.40;99.90;;;;;;5054702;28;20032;-68
2023/08/17 07:43:50;;;;;;;5.75;5.28;;;27.50;99.90;;;;;;5055678;28;20021;-69
2023/08/17 07:46:15;;;;;;;6.60;5.88;;;27.40;99.90;;;;;;5055296;28;20394;-69
2023/08/17 07:48:41;;;;;;;5.88;5.38;;;27.40;99.90;;;;;;5054220;28;20029;-69
2023/08/17 07:51:07;;;;;;;8.05;6.22;;;27.50;99.90;;;;;;5049455;28;20029;-69
2023/08/17 07:53:33;;;;;;;7.75;6.90;;;27.50;99.90;;;;;;5055478;28;20017;-69
2023/08/17 07:55:58;;;;;;;5.65;5.25;;;27.50;99.90;;;;;;5054258;28;20506;-69
2023/08/17 07:58:24;;;;;;;5.30;4.80;;;27.50;99.90;;;;;;5042574;28;20035;-69
2023/08/17 08:00:49;;;;;;;5.90;4.88;;;27.50;99.90;;;;;;5042557;28;20083;-69
2023/08/17 08:03:15;;;;;;;6.20;5.60;;;27.50;99.90;;;;;;5052905;28;20489;-69
2023/08/17 08:05:41;;;;;;;5.93;5.32;;;27.60;99.90;;;;;;5054996;28;20136;-68
2023/08/17 08:08:07;;;;;;;6.63;6.03;;;27.70;99.90;;;;;;5055085;28;20032;-68
2023/08/17 08:10:32;;;;;;;6.35;5.07;;;27.80;99.90;;;;;;5055020;28;20400;-69
2023/08/17 08:12:58;;;;;;;5.80;5.22;;;27.80;99.90;;;;;;5052726;28;20057;-68
2023/08/17 08:15:24;;;;;;;5.60;5.10;;;27.80;99.90;;;;;;5042239;28;20021;-69
2023/08/17 08:17:49;;;;;;;7.03;5.20;;;27.90;99.90;;;;;;5041320;28;20555;-69
2023/08/17 08:20:15;;;;;;;6.07;5.35;;;27.90;99.90;;;;;;5054113;28;20028;-69
2023/08/17 08:22:41;;;;;;;6.40;5.80;;;27.90;99.90;;;;;;5055058;28;20082;-69
2023/08/17 08:25:07;;;;;;;6.10;5.28;;;28.00;99.90;;;;;;5051668;28;20475;-69
2023/08/17 08:27:32;;;;;;;5.78;4.75;;;28.10;99.90;;;;;;5041997;28;20037;-69
2023/08/17 08:29:58;;;;;;;6.40;4.70;;;28.10;99.90;;;;;;5052054;28;20450;-69
2023/08/17 08:32:24;;;;;;;5.30;4.90;;;28.10;99.90;;;;;;5051344;28;20026;-69
2023/08/17 08:34:49;;;;;;;5.85;5.20;;;28.10;99.90;;;;;;5049692;28;20025;-69
2023/08/17 08:37:15;;;;;;;5.72;5.20;;;28.20;99.90;;;;;;5054544;28;20437;-69
2023/08/17 08:39:51;;;;;;;5.97;5.40;;;28.20;99.90;;;;;;5040441;28;20040;-69
2023/08/17 08:42:17;;;;;;;5.93;5.15;;;;;;;;;;5054609;28;20025;-67
2023/08/17 08:44:43;;;;;;;6.10;5.50;;;;;;;;;;5054585;28;20104;-68
2023/08/17 08:47:10;;;;;;;7.45;6.10;;;28.30;99.90;;;;;;5054046;28;20028;-68
2023/08/17 08:49:40;;;;;;;6.30;5.28;;;28.50;99.90;;;;;;5054160;28;20017;-68
2023/08/17 08:52:14;;;;;;;6.35;5.85;;;28.50;99.90;;;;;;5054239;28;20039;-67
2023/08/17 08:54:43;;;;;;;6.93;6.22;;;28.50;99.90;;;;;;5054176;28;20067;-67
2023/08/17 08:57:16;;;;;;;5.32;4.95;;;28.50;99.90;;;;;;5052837;28;20040;-67
2023/08/17 08:59:45;;;;;;;5.60;5.20;;;28.60;99.90;;;;;;5054211;28;20029;-67
2023/08/17 09:02:18;;;;;;;6.10;5.60;;;28.70;99.90;;;;;;5054122;28;20120;-68
2023/08/17 09:04:45;;;;;;;7.57;5.53;;;28.70;99.90;;;;;;5053810;28;20025;-68
2023/08/17 09:07:12;;;;;;;5.93;5.32;;;28.80;99.90;;;;;;5054029;28;20102;-67
2023/08/17 09:09:38;;;;;;;5.70;5.30;;;;;;;;;;5053939;28;20028;-67
2023/08/17 09:12:08;;;;;;;5.68;5.25;;;;;;;;;;5053782;28;20039;-67
2023/08/17 09:14:34;;;;;;;6.95;5.95;;;;;;;;;;5054119;28;20410;-67
2023/08/17 09:17:00;;;;;;;6.22;5.82;;;;;;;;;;5049289;28;20036;-68
2023/08/17 09:19:26;;;;;;;6.35;5.85;;;;;;;;;;5044284;28;20039;-67
2023/08/17 09:21:52;;;;;;;6.53;6.07;;;;;;;;;;5053700;28;20021;-67
2023/08/17 09:24:18;;;;;;;6.53;5.95;;;;;;;;;;5053463;28;20036;-68
2023/08/17 09:26:44;;;;;;;6.55;5.95;;;;;;;;;;5053528;28;20037;-66
2023/08/17 09:29:20;;;;;;;6.55;5.95;;;;;;;;;;5052803;28;20573;-67
2023/08/17 09:31:46;;;;;;;6.80;6.20;;;;;;;;;;5053666;28;20328;-68
2023/08/17 09:34:14;;;;;;;7.18;6.47;;;;;;;;;;5053430;28;20032;-68
2023/08/17 09:36:40;;;;;;;9.15;6.35;;;;;;;;;;5053709;28;20111;-67
2023/08/17 09:39:06;;;;;;;7.18;6.40;;;;;;;;;;5053262;28;20020;-66
2023/08/17 09:41:39;;;;;;;7.05;6.20;;;;;;;;;;5042849;28;20030;-67
2023/08/17 09:44:06;;;;;;;7.72;6.95;;;;;;;;;;5049804;28;20039;-67
2023/08/17 09:46:32;;;;;;;7.70;6.85;;;;;;;;;;5053164;28;20061;-67
2023/08/17 09:48:58;;;;;;;8.57;7.80;;;;;;;;;;5037339;28;20021;-67
2023/08/17 09:51:24;;;;;;;8.70;7.95;;;;;;;;;;5046987;28;20099;-67
2023/08/17 09:53:53;;;;;;;9.85;8.18;;;;;;;;;;5051698;28;20433;-67
2023/08/17 09:56:22;;;;;;;7.95;7.18;;;;;;;;;;5053107;28;20025;-66
2023/08/17 09:58:48;;;;;;;8.00;7.32;;;;;;;;;;5053299;28;20413;-66
2023/08/17 10:01:14;;;;;;;8.63;7.97;;;;;;;;;;5052726;28;20016;-66
2023/08/17 10:03:43;;;;;;;9.40;8.40;;;;;;;;;;5052427;28;20041;-67
2023/08/17 10:06:10;;;;;;;8.45;7.65;;;;;;;;;;5052411;28;20462;-67
2023/08/17 10:08:40;;;;;;;7.80;7.10;;;;;;;;;;5037636;28;20033;-67
2023/08/17 10:11:07;;;;;;;8.27;7.57;;;;;;;;;;5053144;28;20352;-67
2023/08/17 10:13:42;;;;;;;7.57;7.03;;;28.90;99.90;;;;;;5052869;28;20037;-67
2023/08/17 10:16:16;;;;;;;8.98;8.20;;;30.50;99.90;;;;;;5052846;28;20028;-67
2023/08/17 10:18:51;;;;;;;8.15;7.43;;;30.60;99.90;;;;;;5052819;28;20038;-67
2023/08/17 10:21:42;;;;;;;8.98;8.20;;;30.70;99.90;;;;;;5052997;28;20039;-67
2023/08/17 10:24:08;;;;;;;8.95;7.82;;;30.90;99.90;;;;;;5031402;28;20021;-67
2023/08/17 10:26:33;;;;;;;9.25;8.35;;;31.10;99.90;;;;;;5052814;28;20041;-67
2023/08/17 10:29:02;;;;;;;9.77;8.82;;;31.20;99.90;;;;;;5052790;28;20032;-67
2023/08/17 10:31:29;;;;;;;9.85;9.05;;;31.20;99.90;;;;;;5053293;28;20039;-67
2023/08/17 10:33:57;;;;;;;9.05;8.30;;;31.20;99.90;;;;;;5052697;28;20040;-67
2023/08/17 10:36:23;;;;;;;8.85;7.95;;;31.20;99.90;;;;;;5052608;28;20021;-67
2023/08/17 10:39:28;;;;;;;8.20;7.50;;;31.30;99.90;;;;;;5051258;28;20021;-69
2023/08/17 10:41:55;;;;;;;9.52;8.68;;;31.20;99.90;;;;;;5051549;28;20025;-67
2023/08/17 10:44:46;;;;;;;9.02;8.32;;;31.20;99.90;;;;;;5053231;28;20374;-67
2023/08/17 10:47:23;;;;;;;9.05;8.30;;;31.10;99.90;;;;;;5049647;28;20028;-67
2023/08/17 10:50:03;;;;;;;9.20;8.40;;;31.10;99.90;;;;;;5055224;28;20475;-67
2023/08/17 10:52:35;;;;;;;9.52;8.73;;;31.30;99.90;;;;;;5056476;28;20474;-67
2023/08/17 10:55:05;;;;;;;9.93;9.13;;;31.30;99.90;;;;;;5042331;28;20036;-67
2023/08/17 10:57:36;;;;;;;10.23;9.32;;;31.40;99.90;;;;;;5043395;28;20183;-67
2023/08/17 11:00:31;;;;;;;9.90;9.00;;;31.30;99.90;;;;;;5056378;28;20036;-67
2023/08/17 11:02:59;;;;;;;9.35;8.50;;;31.40;99.90;;;;;;5044500;28;20065;-67
2023/08/17 11:05:40;;;;;;;9.82;8.90;;;31.50;99.90;;;;;;5052704;28;20504;-67
2023/08/17 11:08:09;;;;;;;10.25;9.35;;;31.60;99.90;;;;;;5036417;28;20495;-67
2023/08/17 11:10:35;;;;;;;9.80;9.00;;;31.70;99.90;;;;;;5053771;28;20032;-67
2023/08/17 11:13:01;;;;;;;10.60;9.68;;;31.70;99.90;;;;;;5056104;28;20032;-67
2023/08/17 11:15:38;;;;;;;8.77;8.05;;;31.80;99.90;;;;;;5054856;28;20025;-67
2023/08/17 11:18:08;;;;;;;8.80;8.20;;;32.00;99.90;;;;;;5043424;28;20025;-67
2023/08/17 11:20:36;;;;;;;9.18;8.27;;;32.10;99.90;;;;;;5056074;28;20033;-67
2023/08/17 11:23:02;;;;;;;9.20;8.40;;;32.20;99.90;;;;;;5055869;28;20013;-67
2023/08/17 11:25:28;;;;;;;8.75;8.10;;;32.30;99.90;;;;;;5055897;28;20071;-67
2023/08/17 11:27:54;;;;;;;8.68;8.07;;;32.40;99.90;;;;;;5055690;28;20108;-67
2023/08/17 11:30:22;;;;;;;8.57;7.80;;;32.40;99.90;;;;;;5045644;28;20079;-67
2023/08/17 11:32:50;;;;;;;8.88;8.23;;;32.40;99.90;;;;;;5052155;28;20104;-67
2023/08/17 11:35:16;;;;;;;8.52;7.90;;;32.50;99.90;;;;;;5056041;28;20029;-67
2023/08/17 11:37:43;;;;;;;8.55;6.47;;;32.40;99.90;;;;;;5055619;28;20490;-67
2023/08/17 11:40:10;;;;;;;8.55;6.93;;;32.60;99.90;;;;;;5055873;28;20021;-67
2023/08/17 11:42:37;;;;;;;7.68;7.00;;;32.40;99.90;;;;;;5055672;28;20025;-67
2023/08/17 11:45:03;;;;;;;7.65;6.97;;;32.70;99.90;;;;;;5055435;28;20120;-67
2023/08/17 11:47:29;;;;;;;8.32;6.25;;;32.70;99.90;;;;;;5055609;28;20021;-67
2023/08/17 11:50:02;;;;;;;7.65;7.05;;;32.80;99.90;;;;;;5041313;28;20491;-67
2023/08/17 11:52:29;;;;;;;8.30;7.60;;;33.10;99.90;;;;;;5054275;28;20063;-65
2023/08/17 11:54:56;;;;;;;8.55;7.75;;;33.30;99.90;;;;;;5055349;28;20502;-66
2023/08/17 11:57:22;;;;;;;8.02;7.28;;;33.50;99.90;;;;;;5055235;28;20115;-66
2023/08/17 11:59:47;;;;;;;8.20;7.28;;;35.10;99.90;;;;;;5055496;28;20116;-66
2023/08/17 12:02:13;;;;;;;7.80;7.00;;;38.90;99.90;;;;;;5055344;28;20096;-66
2023/08/17 12:04:39;;;;;;;7.72;7.13;;;41.50;99.90;;;;;;5055030;28;20024;-65
2023/08/17 12:07:05;;;;;;;8.07;7.35;;;42.70;99.90;;;;;;5054767;28;20456;-66
2023/08/17 12:09:34;;;;;;;9.43;7.70;;;42.50;99.90;;;;;;5054968;28;20036;-66
2023/08/17 12:12:01;;;;;;;8.25;7.72;;;42.30;99.90;;;;;;5054881;28;20387;-66
2023/08/17 12:14:30;;;;;;;6.95;6.55;;;41.70;99.90;;;;;;5055018;28;20168;-67
2023/08/17 12:16:56;;;;;;;7.93;7.32;;;41.50;99.90;;;;;;5054821;28;20036;-66
2023/08/17 12:19:25;;;;;;;7.28;6.88;;;41.30;99.90;;;;;;5054910;28;20017;-66
2023/08/17 12:21:50;;;;;;;7.93;7.22;;;42.10;99.90;;;;;;5055136;28;20425;-66
2023/08/17 12:24:19;;;;;;;8.23;7.70;;;43.30;99.90;;;;;;5054704;28;20017;-66
2023/08/17 12:26:48;;;;;;;8.38;7.78;;;43.80;99.90;;;;;;5043301;28;20041;-66
2023/08/17 12:29:14;;;;;;;7.63;7.22;;;44.80;99.90;;;;;;5052908;28;20056;-66
2023/08/17 12:31:40;;;;;;;7.75;7.22;;;45.30;99.90;;;;;;5054661;28;20075;-66
2023/08/17 12:34:06;;;;;;;7.82;7.43;;;46.20;99.90;;;;;;5054620;28;20478;-66
2023/08/17 12:36:32;;;;;;;7.90;7.35;;;45.00;99.90;;;;;;5054652;28;20017;-66
2023/08/17 12:38:58;;;;;;;7.97;7.47;;;45.80;99.90;;;;;;5054478;28;20108;-66
2023/08/17 12:41:24;;;;;;;7.72;7.15;;;46.90;99.90;;;;;;5054389;28;20021;-66
2023/08/17 12:43:50;;;;;;;7.70;7.10;;;47.40;99.90;;;;;;5042416;28;20056;-66
2023/08/17 12:46:16;;;;;;;7.10;6.68;;;46.80;99.90;;;;;;5042890;28;20123;-66
2023/08/17 12:48:41;;;;;;;7.60;7.10;;;45.30;99.90;;;;;;5054094;28;20082;-66
2023/08/17 12:51:07;;;;;;;6.90;6.35;;;;;;;;;;5043209;28;20024;-66
2023/08/17 12:53:34;;;;;;;7.13;6.72;;;43.40;99.90;;;;;;5041968;28;20093;-66
2023/08/17 12:56:00;;;;;;;7.50;7.00;;;40.70;99.90;;;;;;5052557;28;20605;-66
2023/08/17 12:58:25;;;;;;;7.70;7.10;;;40.40;99.90;;;;;;5040252;28;20013;-66
2023/08/17 13:00:54;;;;;;;7.38;6.93;;;40.30;99.90;;;;;;5054369;28;20090;-66
2023/08/17 13:03:19;;;;;;;7.78;7.38;;;39.70;99.90;;;;;;5053790;28;20024;-66
2023/08/17 13:05:45;;;;;;;7.35;6.85;;;39.50;99.90;;;;;;5046603;28;20410;-66
2023/08/17 13:08:11;;;;;;;7.43;6.78;;;39.20;99.90;;;;;;5034094;28;20033;-66
2023/08/17 13:10:38;;;;;;;7.38;6.88;;;39.00;99.90;;;;;;5052987;28;20056;-67
2023/08/17 13:13:04;;;;;;;7.50;6.95;;;39.00;99.90;;;;;;5053281;28;20025;-66
2023/08/17 13:15:32;;;;;;;7.82;7.32;;;39.10;99.90;;;;;;5053487;28;20032;-66
2023/08/17 13:17:59;;;;;;;7.55;6.85;;;39.50;99.90;;;;;;5045794;28;20026;-66
2023/08/17 13:20:24;;;;;;;7.90;7.40;;;39.60;99.90;;;;;;5037684;28;20068;-66
2023/08/17 13:22:50;;;;;;;7.18;6.70;;;39.50;99.90;;;;;;5053567;28;20021;-66
2023/08/17 13:25:16;;;;;;;7.22;6.70;;;38.90;99.90;;;;;;5053478;28;20055;-66
2023/08/17 13:27:42;;;;;;;7.07;6.68;;;39.30;99.90;;;;;;5053563;28;20100;-67
2023/08/17 13:30:08;;;;;;;7.10;6.80;;;39.20;99.90;;;;;;5053492;28;20116;-66
2023/08/17 13:32:34;;;;;;;6.65;6.20;;;40.00;99.90;;;;;;5053548;28;20119;-66
2023/08/17 13:35:02;;;;;;;6.20;5.90;;;39.90;99.90;;;;;;5053502;28;20474;-66
2023/08/17 13:37:27;;;;;;;6.38;6.07;;;40.30;99.90;;;;;;5053226;28;20032;-66
2023/08/17 13:39:53;;;;;;;6.55;6.25;;;40.20;99.90;;;;;;5053314;28;20021;-67
2023/08/17 13:42:19;;;;;;;5.97;5.68;;;39.70;99.90;;;;;;5053462;28;20463;-66
2023/08/17 13:44:45;;;;;;;5.75;5.35;;;39.80;99.90;;;;;;5053194;28;20021;-67
2023/08/17 13:47:11;;;;;;;5.20;4.80;;;39.50;99.90;;;;;;5053220;28;20489;-67
2023/08/17 13:49:37;;;;;;;5.93;5.63;;;39.80;99.90;;;;;;5053409;28;20425;-66
2023/08/17 13:52:03;;;;;;;6.10;5.80;;;40.10;99.90;;;;;;5053270;28;20079;-67
2023/08/17 13:54:29;;;;;;;6.40;5.80;;;40.70;99.90;;;;;;5038914;28;20049;-66